Time;durP1;ratioP1;P1;durP2;ratioP2;P2;SDS_P1;SDS_P2;PMS_P1;PMS_P2;Temp;Humidity;BMP_temperature;BMP_pressure;BME280_temperature;BME280_humidity;BME280_pressure;Samples;Min_cycle;Max_cycle;Signal;HPM_P1;HPM_P2
2022/09/12 00:00:51;;;;;;;6.85;2.83;;;;;;;;;;2326550;58;21108;-77
2022/09/12 00:03:18;;;;;;;3.92;2.30;;;;;;;;;;2568962;54;21579;-77
2022/09/12 00:05:46;;;;;;;2.35;2.15;;;;;;;;;;2568367;54;21080;-76
2022/09/12 00:08:14;;;;;;;2.50;2.30;;;;;;;;;;2326600;58;21065;-75
2022/09/12 00:10:42;;;;;;;2.75;2.30;;;;;;;;;;2326520;58;21033;-78
2022/09/12 00:13:10;;;;;;;2.75;2.05;;;;;;;;;;2568878;54;21515;-77
2022/09/12 00:15:38;;;;;;;2.65;2.20;;;;;;;;;;2326171;58;21064;-77
2022/09/12 00:18:06;;;;;;;3.97;2.17;;;;;;;;;;2568930;54;21060;-78
2022/09/12 00:20:33;;;;;;;3.10;2.20;;;;;;;;;;2326422;58;21095;-77
2022/09/12 00:23:00;;;;;;;2.22;2.00;;;;;;;;;;2568912;54;21116;-77
2022/09/12 00:25:29;;;;;;;5.78;2.37;;;;;;;;;;2568392;54;21535;-77
2022/09/12 00:27:57;;;;;;;2.33;2.00;;;;;;;;;;2326494;58;21092;-78
2022/09/12 00:30:24;;;;;;;2.70;1.83;;;;;;;;;;2326536;58;21575;-77
2022/09/12 00:32:53;;;;;;;3.15;2.12;;;;;;;;;;2568800;54;21564;-75
2022/09/12 00:35:20;;;;;;;3.28;2.50;;;;;;;;;;2568626;54;21052;-78
2022/09/12 00:37:47;;;;;;;2.80;2.20;;;;;;;;;;2326444;58;21048;-75
2022/09/12 00:40:14;;;;;;;2.67;2.47;;;;;;;;;;2568849;54;21542;-78
2022/09/12 00:42:41;;;;;;;3.05;2.45;;;;;;;;;;2568771;54;21036;-75
2022/09/12 00:45:18;;;;;;;4.57;2.28;;;;;;;;;;2568735;54;21092;-78
2022/09/12 00:47:45;;;;;;;2.25;2.05;;;;;;;;;;2326522;58;21571;-77
2022/09/12 00:50:13;;;;;;;3.35;2.72;;;;;;;;;;2326391;58;21077;-77
2022/09/12 00:52:42;;;;;;;4.03;2.42;;;;;;;;;;2326385;58;21049;-77
2022/09/12 00:55:12;;;;;;;2.12;1.80;;;;;;;;;;2568835;54;21045;-77
2022/09/12 00:57:43;;;;;;;2.45;2.10;;;;;;;;;;2326208;58;21052;-78
2022/09/12 01:00:13;;;;;;;2.35;1.98;;;;;;;;;;2326482;58;21056;-77
2022/09/12 01:02:40;;;;;;;3.47;2.35;;;;;;;;;;2326356;58;21048;-77
2022/09/12 01:05:08;;;;;;;3.00;2.70;;;;;;;;;;2326464;58;21040;-77
2022/09/12 01:07:36;;;;;;;4.10;2.70;;;;;;;;;;2326082;58;21547;-77
2022/09/12 01:10:03;;;;;;;2.30;2.10;;;;;;;;;;2569155;54;21453;-77
2022/09/12 01:12:31;;;;;;;3.22;2.35;;;;;;;;;;2568886;54;21587;-77
2022/09/12 01:14:59;;;;;;;3.95;2.50;;;;;;;;;;2326386;58;21045;-78
2022/09/12 01:17:30;;;;;;;6.25;3.08;;;;;;;;;;2326265;58;21040;-77
2022/09/12 01:20:17;;;;;;;4.53;2.37;;;;;;;;;;2326543;58;21044;-77
2022/09/12 01:23:03;;;;;;;4.45;2.45;;;;;;;;;;2282475;58;21040;-77
2022/09/12 01:25:32;;;;;;;3.70;2.90;;;;;;;;;;2306952;58;21113;-84
2022/09/12 01:28:12;;;;;;;6.05;2.47;;;;;;;;;;2545468;54;21049;-84
2022/09/12 01:30:47;;;;;;;2.90;2.50;;;;;;;;;;2307474;58;21050;-84
2022/09/12 01:33:24;;;;;;;3.90;3.00;;;;;;;;;;2306805;58;21054;-84
2022/09/12 01:35:57;;;;;;;2.95;2.45;;;;;;;;;;2305433;58;21102;-83
2022/09/12 01:38:23;;;;;;;;;;;;;;;;;;2309307;58;21503;-84
2022/09/12 01:40:55;;;;;;;3.17;2.53;;;;;;;;;;2305800;58;20056;-84
2022/09/12 01:43:25;;;;;;;4.30;3.17;;;;;;;;;;2543525;54;21126;-84
2022/09/12 01:45:56;;;;;;;3.30;3.00;;;;;;;;;;2543293;54;21101;-84
2022/09/12 01:48:24;;;;;;;3.33;2.30;;;;;;;;;;2543542;54;21516;-85
2022/09/12 01:50:52;;;;;;;3.03;2.17;;;;;;;;;;2305700;58;21081;-84
2022/09/12 01:53:22;;;;;;;3.45;2.40;;;;;;;;;;2543192;54;21161;-83
2022/09/12 01:55:52;;;;;;;7.53;2.40;;;;;;;;;;2543401;54;21030;-84
2022/09/12 01:58:21;;;;;;;3.45;2.30;;;;;;;;;;2543578;54;21039;-84
2022/09/12 02:00:50;;;;;;;3.08;2.50;;;;;;;;;;2543403;54;21046;-84
2022/09/12 02:03:20;;;;;;;2.67;2.10;;;;;;;;;;2305758;58;21164;-84
2022/09/12 02:05:51;;;;;;;2.53;2.33;;;;;;;;;;2543032;54;21038;-84
2022/09/12 02:08:20;;;;;;;1.73;1.50;;;;;;;;;;2543339;54;21049;-84
2022/09/12 02:10:50;;;;;;;1.65;1.40;;;;;;;;;;2543316;54;21046;-84
2022/09/12 02:13:20;;;;;;;1.80;1.65;;;;;;;;;;2543492;54;21583;-84
2022/09/12 02:15:49;;;;;;;2.28;1.95;;;;;;;;;;2305506;58;21094;-84
2022/09/12 02:18:18;;;;;;;1.60;1.50;;;;;;;;;;2543289;54;21054;-84
2022/09/12 02:20:46;;;;;;;2.10;1.70;;;;;;;;;;2543539;54;21110;-83
2022/09/12 02:23:15;;;;;;;2.15;1.80;;;;;;;;;;2543367;53;21099;-84
2022/09/12 02:25:44;;;;;;;2.40;2.15;;;;;;;;;;2543087;54;21101;-84
2022/09/12 02:28:14;;;;;;;1.70;1.60;;;;;;;;;;2543546;54;21523;-84
2022/09/12 02:30:43;;;;;;;3.35;1.80;;;;;;;;;;2543210;54;21054;-84
2022/09/12 02:33:13;;;;;;;1.90;1.70;;;;;;;;;;2305462;58;21038;-84
2022/09/12 02:35:46;;;;;;;2.58;1.77;;;;;;;;;;2305289;58;21201;-84
2022/09/12 02:38:19;;;;;;;2.42;2.05;;;;;;;;;;2306151;58;21042;-84
2022/09/12 02:40:46;;;;;;;1.98;1.77;;;;;;;;;;2305991;58;21145;-84
2022/09/12 02:43:13;;;;;;;1.87;1.77;;;;;;;;;;2543624;54;21118;-84
2022/09/12 02:45:40;;;;;;;4.10;2.15;;;;;;;;;;2543089;54;21050;-84
2022/09/12 02:48:09;;;;;;;2.65;2.30;;;;;;;;;;2543122;54;21046;-84
2022/09/12 02:50:37;;;;;;;3.95;2.30;;;;;;;;;;2543282;54;21105;-84
2022/09/12 02:53:05;;;;;;;2.45;2.25;;;;;;;;;;2305552;58;21042;-84
2022/09/12 02:55:33;;;;;;;2.08;1.90;;;;;;;;;;2542846;54;21054;-84
2022/09/12 02:58:01;;;;;;;1.95;1.75;;;;;;;;;;2543423;54;21050;-84
2022/09/12 03:00:28;;;;;;;2.42;2.20;;;;;;;;;;2305746;58;21054;-84
2022/09/12 03:03:11;;;;;;;3.50;2.42;;;;;;;;;;2543420;54;21026;-84
2022/09/12 03:05:40;;;;;;;2.47;1.92;;;;;;;;;;2542999;54;21574;-84
2022/09/12 03:08:13;;;;;;;2.50;2.10;;;;;;;;;;2543121;54;21083;-85
2022/09/12 03:10:46;;;;;;;2.80;2.10;;;;;;;;;;2305695;58;21098;-84
2022/09/12 03:13:20;;;;;;;1.73;1.42;;;;;;;;;;2543125;54;21030;-85
2022/09/12 03:15:51;;;;;;;1.50;1.40;;;;;;;;;;2542973;54;21090;-84
2022/09/12 03:18:25;;;;;;;2.20;1.70;;;;;;;;;;2305474;58;21054;-84
2022/09/12 03:20:57;;;;;;;6.30;1.60;;;;;;;;;;2543470;54;21050;-84
2022/09/12 03:23:29;;;;;;;3.70;2.10;;;;;;;;;;2305921;58;21038;-84
2022/09/12 03:25:59;;;;;;;3.33;1.75;;;;;;;;;;2305080;58;21370;-84
2022/09/12 03:28:26;;;;;;;2.20;2.00;;;;;;;;;;2305509;58;21186;-84
2022/09/12 03:30:55;;;;;;;2.12;1.92;;;;;;;;;;2543170;54;21058;-84
2022/09/12 03:33:23;;;;;;;3.15;2.53;;;;;;;;;;2305552;58;21122;-84
2022/09/12 03:35:50;;;;;;;2.15;1.92;;;;;;;;;;2305154;58;21061;-84
2022/09/12 03:38:17;;;;;;;2.45;2.20;;;;;;;;;;2543291;54;21030;-84
2022/09/12 03:40:45;;;;;;;2.90;2.12;;;;;;;;;;2543153;54;21605;-84
2022/09/12 03:43:12;;;;;;;4.20;2.12;;;;;;;;;;2543256;54;21102;-84
2022/09/12 03:45:39;;;;;;;2.45;2.00;;;;;;;;;;2305120;58;21105;-83
2022/09/12 03:48:06;;;;;;;3.62;2.22;;;;;;;;;;2543193;54;21091;-84
2022/09/12 03:50:33;;;;;;;2.42;1.80;;;;;;;;;;2543157;54;21393;-84
2022/09/12 03:53:00;;;;;;;2.85;2.50;;;;;;;;;;2543125;54;21042;-84
2022/09/12 03:55:27;;;;;;;3.25;2.37;;;;;;;;;;2542627;54;21078;-84
2022/09/12 03:57:54;;;;;;;2.75;2.30;;;;;;;;;;2305502;58;21118;-84
2022/09/12 04:00:22;;;;;;;2.87;2.40;;;;;;;;;;2305465;58;21141;-83
2022/09/12 04:02:52;;;;;;;2.53;2.05;;;;;;;;;;2305287;58;21050;-84
2022/09/12 04:05:19;;;;;;;2.83;2.37;;;;;;;;;;2305189;58;21543;-82
2022/09/12 04:07:46;;;;;;;4.07;2.35;;;;;;;;;;2305599;58;21480;-83
2022/09/12 04:10:13;;;;;;;2.62;2.42;;;;;;;;;;2543125;54;21102;-84
2022/09/12 04:12:40;;;;;;;2.87;1.92;;;;;;;;;;2542960;54;21103;-83
2022/09/12 04:15:09;;;;;;;4.35;1.87;;;;;;;;;;2543003;54;21051;-84
2022/09/12 04:17:36;;;;;;;2.37;2.15;;;;;;;;;;2305603;58;21054;-84
2022/09/12 04:20:03;;;;;;;2.03;1.92;;;;;;;;;;2543143;54;21531;-84
2022/09/12 04:22:31;;;;;;;5.28;2.22;;;;;;;;;;2543326;54;21105;-83
2022/09/12 04:24:58;;;;;;;2.10;1.87;;;;;;;;;;2305474;58;21102;-84
2022/09/12 04:27:25;;;;;;;2.70;2.12;;;;;;;;;;2542900;54;21050;-84
2022/09/12 04:29:53;;;;;;;6.35;2.40;;;;;;;;;;2305615;58;21570;-84
2022/09/12 04:32:21;;;;;;;5.95;2.25;;;;;;;;;;2543300;54;21086;-84
2022/09/12 04:34:48;;;;;;;2.62;2.08;;;;;;;;;;2543107;54;21043;-83
2022/09/12 04:37:15;;;;;;;2.47;2.15;;;;;;;;;;2542928;54;21022;-84
2022/09/12 04:39:42;;;;;;;4.60;2.03;;;;;;;;;;2305575;58;21054;-84
2022/09/12 04:42:09;;;;;;;1.65;1.55;;;;;;;;;;2305612;58;21054;-84
2022/09/12 04:44:36;;;;;;;2.00;1.50;;;;;;;;;;2305415;58;21098;-83
2022/09/12 04:47:03;;;;;;;1.17;1.08;;;;;;;;;;2542509;54;21050;-84
2022/09/12 04:49:30;;;;;;;1.30;1.20;;;;;;;;;;2543055;54;21041;-84
2022/09/12 04:51:57;;;;;;;3.78;1.62;;;;;;;;;;2305813;58;21472;-84
2022/09/12 04:54:25;;;;;;;1.75;1.60;;;;;;;;;;2305748;58;21543;-84
2022/09/12 04:56:53;;;;;;;4.32;1.70;;;;;;;;;;2542882;54;21101;-84
2022/09/12 04:59:21;;;;;;;3.65;1.87;;;;;;;;;;2543398;54;21117;-84
2022/09/12 05:01:48;;;;;;;2.22;1.70;;;;;;;;;;2543487;54;21050;-83
2022/09/12 05:04:15;;;;;;;1.65;1.55;;;;;;;;;;2543252;54;21046;-84
2022/09/12 05:06:42;;;;;;;1.65;1.55;;;;;;;;;;2543178;54;21058;-84
2022/09/12 05:09:11;;;;;;;2.20;1.98;;;;;;;;;;2305740;58;21107;-84
2022/09/12 05:11:40;;;;;;;6.55;2.72;;;;;;;;;;2305733;58;21097;-84
2022/09/12 05:14:07;;;;;;;2.62;2.42;;;;;;;;;;2305739;58;21034;-84
2022/09/12 05:16:34;;;;;;;3.67;2.40;;;;;;;;;;2543190;54;21046;-84
2022/09/12 05:19:01;;;;;;;5.78;2.70;;;;;;;;;;2543248;54;21101;-84
2022/09/12 05:21:28;;;;;;;4.22;2.30;;;;;;;;;;2543373;54;21091;-84
2022/09/12 05:23:55;;;;;;;4.75;2.60;;;;;;;;;;2543202;54;21499;-84
2022/09/12 05:26:23;;;;;;;2.58;2.17;;;;;;;;;;2542992;53;21671;-84
2022/09/12 05:28:50;;;;;;;3.53;2.15;;;;;;;;;;2305815;58;21185;-84
2022/09/12 05:31:18;;;;;;;2.53;2.22;;;;;;;;;;2543361;54;21097;-84
2022/09/12 05:33:46;;;;;;;4.68;2.00;;;;;;;;;;2543211;54;21035;-84
2022/09/12 05:36:14;;;;;;;2.42;2.17;;;;;;;;;;2542959;54;21097;-85
2022/09/12 05:38:41;;;;;;;3.25;2.87;;;;;;;;;;2543196;54;21110;-84
2022/09/12 05:41:10;;;;;;;3.00;2.25;;;;;;;;;;2305901;58;21070;-84
2022/09/12 05:43:38;;;;;;;3.87;2.55;;;;;;;;;;2543267;54;21054;-84
2022/09/12 05:46:07;;;;;;;5.62;2.70;;;;;;;;;;2305403;58;21176;-84
2022/09/12 05:48:35;;;;;;;2.60;2.35;;;;;;;;;;2305707;58;21061;-84
2022/09/12 05:51:03;;;;;;;3.22;2.20;;;;;;;;;;2543341;54;21133;-84
2022/09/12 05:53:31;;;;;;;3.20;2.90;;;;;;;;;;2543346;54;21062;-85
2022/09/12 05:56:08;;;;;;;3.90;2.75;;;;;;;;;;2305533;58;21670;-84
2022/09/12 05:58:36;;;;;;;3.60;2.90;;;;;;;;;;2543434;54;21058;-84
2022/09/12 06:01:04;;;;;;;5.00;2.50;;;;;;;;;;2543325;54;21608;-84
2022/09/12 06:03:31;;;;;;;2.35;2.15;;;;;;;;;;2305794;58;21594;-84
2022/09/12 06:06:01;;;;;;;4.12;2.30;;;;;;;;;;2305333;58;21142;-84
2022/09/12 06:08:28;;;;;;;4.87;3.12;;;;;;;;;;2543404;54;21078;-84
2022/09/12 06:10:58;;;;;;;3.70;3.05;;;;;;;;;;2305635;58;21034;-83
2022/09/12 06:13:25;;;;;;;3.20;2.70;;;;;;;;;;2305782;58;21049;-84
2022/09/12 06:15:53;;;;;;;3.65;2.78;;;;;;;;;;2305218;58;21050;-84
2022/09/12 06:18:20;;;;;;;3.53;2.85;;;;;;;;;;2305747;58;21563;-84
2022/09/12 06:20:47;;;;;;;3.62;2.90;;;;;;;;;;2305543;58;21105;-84
2022/09/12 06:23:14;;;;;;;4.45;2.72;;;;;;;;;;2305674;58;21083;-85
2022/09/12 06:25:46;;;;;;;2.85;2.58;;;;;;;;;;2542880;53;21519;-84
2022/09/12 06:28:13;;;;;;;2.97;2.47;;;;;;;;;;2306073;58;21097;-84
2022/09/12 06:30:41;;;;;;;5.57;3.10;;;;;;;;;;2304858;58;22275;-84
2022/09/12 06:33:08;;;;;;;3.17;2.75;;;;;;;;;;2305606;58;21114;-84
2022/09/12 06:35:36;;;;;;;3.08;2.22;;;;;;;;;;2305091;58;21042;-84
2022/09/12 06:38:03;;;;;;;4.57;2.72;;;;;;;;;;2543475;54;21034;-84
2022/09/12 06:40:30;;;;;;;3.10;2.65;;;;;;;;;;2305593;58;21058;-84
2022/09/12 06:42:57;;;;;;;7.30;4.00;;;;;;;;;;2543364;54;21047;-84
2022/09/12 06:45:25;;;;;;;3.53;2.83;;;;;;;;;;2305233;58;21106;-84
2022/09/12 06:47:52;;;;;;;4.20;3.80;;;;;;;;;;2543373;54;21101;-84
2022/09/12 06:50:19;;;;;;;3.08;2.65;;;;;;;;;;2543239;54;21050;-84
2022/09/12 06:52:48;;;;;;;4.65;3.70;;;;;;;;;;2543160;54;21058;-84
2022/09/12 06:55:15;;;;;;;4.82;3.28;;;;;;;;;;2543068;54;21114;-82
2022/09/12 06:57:42;;;;;;;3.85;3.33;;;;;;;;;;2543372;54;21042;-84
2022/09/12 07:00:11;;;;;;;5.93;3.87;;;;;;;;;;2543281;54;21506;-84
2022/09/12 07:02:38;;;;;;;3.62;3.00;;;;;;;;;;2543381;54;21098;-84
2022/09/12 07:05:05;;;;;;;7.12;4.37;;;;;;;;;;2543139;54;21554;-85
2022/09/12 07:07:34;;;;;;;5.45;4.20;;;;;;;;;;2542853;54;21189;-85
2022/09/12 07:10:01;;;;;;;7.12;4.00;;;;;;;;;;2305695;58;21075;-84
2022/09/12 07:12:28;;;;;;;6.60;4.20;;;;;;;;;;2305717;58;21042;-85
2022/09/12 07:14:55;;;;;;;5.20;4.57;;;;;;;;;;2305560;58;21163;-85
2022/09/12 07:17:22;;;;;;;4.72;4.03;;;;;;;;;;2542976;54;21094;-85
2022/09/12 07:19:49;;;;;;;5.60;4.57;;;;;;;;;;2543411;54;21050;-84
2022/09/12 07:22:16;;;;;;;8.15;4.82;;;;;;;;;;2305685;58;21034;-84
2022/09/12 07:24:44;;;;;;;6.60;5.10;;;;;;;;;;2485800;53;72793;-75
2022/09/12 07:27:11;;;;;;;6.57;5.75;;;;;;;;;;2369698;56;21486;-75
2022/09/12 07:29:38;;;;;;;6.57;5.12;;;;;;;;;;2370047;56;21080;-75
2022/09/12 07:32:06;;;;;;;6.90;4.97;;;;;;;;;;2370039;56;21060;-75
2022/09/12 07:34:33;;;;;;;6.07;4.72;;;;;;;;;;2394996;56;21508;-75
2022/09/12 07:37:00;;;;;;;7.05;5.35;;;;;;;;;;2397729;56;21109;-75
2022/09/12 07:39:27;;;;;;;5.62;5.05;;;;;;;;;;2398345;56;21014;-75
2022/09/12 07:41:54;;;;;;;6.75;5.32;;;;;;;;;;2398179;56;21014;-75
2022/09/12 07:44:22;;;;;;;6.82;5.45;;;;;;;;;;2398067;56;21161;-75
2022/09/12 07:46:49;;;;;;;7.20;5.82;;;;;;;;;;2397826;56;21105;-75
2022/09/12 07:49:16;;;;;;;7.97;4.45;;;;;;;;;;2398208;56;21025;-75
2022/09/12 07:51:43;;;;;;;8.65;5.03;;;;;;;;;;2398198;56;21026;-75
2022/09/12 07:54:10;;;;;;;6.30;5.20;;;;;;;;;;2398185;56;21080;-75
2022/09/12 07:56:37;;;;;;;6.65;4.20;;;;;;;;;;2397870;56;21030;-75
2022/09/12 07:59:04;;;;;;;5.03;4.10;;;;;;;;;;2398170;56;21046;-75
2022/09/12 08:01:32;;;;;;;5.25;4.07;;;;;;;;;;2398169;56;21014;-75
2022/09/12 08:04:00;;;;;;;5.80;3.92;;;;;;;;;;2398396;56;21114;-75
2022/09/12 08:06:32;;;;;;;5.97;3.92;;;;;;;;;;2397889;56;21110;-75
2022/09/12 08:09:00;;;;;;;6.32;3.95;;;;;;;;;;2398343;56;21030;-75
2022/09/12 08:11:28;;;;;;;4.07;3.45;;;;;;;;;;2398113;56;21086;-75
2022/09/12 08:13:56;;;;;;;5.47;4.50;;;;;;;;;;2398131;56;21038;-75
2022/09/12 08:16:24;;;;;;;3.47;3.15;;;;;;;;;;2397846;56;21152;-75
2022/09/12 08:18:51;;;;;;;4.15;3.28;;;;;;;;;;2494529;52;21025;-75
2022/09/12 08:21:19;;;;;;;4.22;3.25;;;;;;;;;;2398194;56;21018;-75
2022/09/12 08:23:46;;;;;;;3.67;3.12;;;;;;;;;;2645307;51;21022;-76
2022/09/12 08:26:14;;;;;;;6.45;3.42;;;;;;;;;;2397850;56;21018;-75
2022/09/12 08:28:45;;;;;;;4.18;3.20;;;;;;;;;;2398067;56;21512;-75
2022/09/12 08:31:12;;;;;;;4.35;2.80;;;;;;;;;;2398219;56;21026;-75
2022/09/12 08:33:39;;;;;;;2.90;2.70;;;;;;;;;;2398050;56;21500;-75
2022/09/12 08:36:08;;;;;;;3.75;3.00;;;;;;;;;;2397799;56;21092;-75
2022/09/12 08:38:36;;;;;;;3.50;3.00;;;;;;;;;;2398335;56;21117;-75
2022/09/12 08:41:05;;;;;;;5.90;2.40;;;;;;;;;;2398165;56;21038;-75
2022/09/12 08:43:42;;;;;;;4.82;2.30;;;;;;;;;;2398018;56;21022;-75
2022/09/12 08:46:14;;;;;;;5.28;3.20;;;;;;;;;;2397836;56;21043;-75
2022/09/12 08:48:50;;;;;;;3.22;2.92;;;;;;;;;;2398150;56;21038;-75
2022/09/12 08:51:18;;;;;;;3.80;2.62;;;;;;;;;;2398099;56;21077;-75
2022/09/12 08:53:47;;;;;;;3.25;2.92;;;;;;;;;;2398039;56;21035;-75
2022/09/12 08:56:14;;;;;;;3.37;2.55;;;;;;;;;;2397681;56;21014;-75
2022/09/12 08:58:42;;;;;;;5.32;4.43;;;;;;;;;;2398151;56;21025;-75
2022/09/12 09:01:12;;;;;;;4.85;3.90;;;;;;;;;;2398026;56;21682;-75
2022/09/12 09:04:04;;;;;;;4.07;3.12;;;;;;;;;;2397985;56;21022;-75
2022/09/12 09:06:35;;;;;;;5.70;3.10;;;;;;;;;;2397705;56;21628;-75
2022/09/12 09:09:06;;;;;;;4.25;3.28;;;;;;;;;;2398051;56;21025;-75
2022/09/12 09:11:37;;;;;;;4.37;3.10;;;;;;;;;;2397967;56;21022;-75
2022/09/12 09:16:58;;;;;;;4.45;3.35;;;;;;;;;;2656434;52;20855;-75
2022/09/12 09:19:28;;;;;;;3.35;2.72;;;;;;;;;;2398209;56;21025;-76
2022/09/12 09:21:56;;;;;;;3.75;3.17;;;;;;;;;;2398011;56;21496;-75
2022/09/12 09:24:27;;;;;;;4.28;2.80;;;;;;;;;;2397884;56;21565;-75
2022/09/12 09:26:56;;;;;;;3.90;3.00;;;;;;;;;;2397786;56;21034;-75
2022/09/12 09:29:24;;;;;;;4.05;3.65;;;;;;;;;;2398007;56;21030;-75
2022/09/12 09:31:53;;;;;;;3.12;2.72;;;;;;;;;;2398271;56;21084;-75
2022/09/12 09:34:21;;;;;;;4.60;2.87;;;;;;;;;;2397974;56;21034;-75
2022/09/12 09:36:52;;;;;;;6.85;3.08;;;;;;;;;;2397612;56;21030;-75
2022/09/12 09:39:29;;;;;;;3.78;2.60;;;;;;;;;;2397988;56;21034;-75
2022/09/12 09:42:01;;;;;;;4.75;3.10;;;;;;;;;;2398125;56;21078;-74
2022/09/12 09:44:29;;;;;;;2.80;2.57;;;;;;;;;;2398657;56;21419;-75
2022/09/12 09:46:57;;;;;;;4.85;3.20;;;;;;;;;;2656631;52;21018;-75
2022/09/12 09:49:25;;;;;;;3.42;2.67;;;;;;;;;;2398316;56;21069;-75
2022/09/12 09:51:52;;;;;;;3.08;2.62;;;;;;;;;;2398232;56;21162;-75
2022/09/12 09:54:21;;;;;;;2.53;1.95;;;;;;;;;;2398323;56;21089;-75
2022/09/12 09:56:48;;;;;;;2.33;2.12;;;;;;;;;;2397849;56;21525;-75
2022/09/12 09:59:16;;;;;;;2.50;2.25;;;;;;;;;;2398363;56;21098;-75
2022/09/12 10:01:47;;;;;;;3.50;1.90;;;;;;;;;;2398150;56;21033;-75
2022/09/12 10:04:19;;;;;;;2.53;1.85;;;;;;;;;;2398153;56;21116;-75
2022/09/12 10:06:46;;;;;;;2.30;1.92;;;;;;;;;;2656642;52;21488;-75
2022/09/12 10:09:20;;;;;;;4.40;2.37;;;;;;;;;;2398193;56;21017;-75
2022/09/12 10:11:48;;;;;;;2.42;2.10;;;;;;;;;;2398496;56;21025;-75
2022/09/12 10:14:35;;;;;;;2.53;1.95;;;;;;;;;;2398081;56;21030;-75
2022/09/12 10:17:02;;;;;;;2.72;1.58;;;;;;;;;;2397919;56;21560;-75
2022/09/12 10:19:35;;;;;;;2.03;1.45;;;;;;;;;;2398344;56;21109;-75
2022/09/12 10:22:02;;;;;;;2.50;1.70;;;;;;;;;;2398173;56;21517;-75
2022/09/12 10:24:32;;;;;;;1.62;1.50;;;;;;;;;;2398211;56;21599;-75
2022/09/12 10:27:06;;;;;;;1.20;1.10;;;;;;;;;;2397992;56;21030;-75
2022/09/12 10:29:36;;;;;;;1.50;1.40;;;;;;;;;;2398399;56;21168;-75
2022/09/12 10:32:04;;;;;;;1.30;1.10;;;;;;;;;;2400134;52;21089;-75
2022/09/12 10:34:35;;;;;;;1.85;1.17;;;;;;;;;;2398279;56;21081;-75
2022/09/12 10:37:03;;;;;;;1.30;1.20;;;;;;;;;;2397966;56;21109;-75
2022/09/12 10:39:31;;;;;;;1.23;1.12;;;;;;;;;;2398128;56;21026;-75
2022/09/12 10:41:58;;;;;;;1.10;1.00;;;;;;;;;;2398512;56;21038;-75
2022/09/12 10:44:26;;;;;;;2.05;1.33;;;;;;;;;;2398195;56;21030;-75
2022/09/12 10:46:53;;;;;;;1.37;1.27;;;;;;;;;;2398011;56;21021;-75
2022/09/12 10:49:24;;;;;;;0.90;0.90;;;;;;;;;;2398379;56;21026;-75
2022/09/12 10:51:52;;;;;;;3.15;1.30;;;;;;;;;;2398301;56;21121;-76
2022/09/12 10:54:21;;;;;;;3.15;1.12;;;;;;;;;;2398143;56;21042;-75
2022/09/12 10:56:52;;;;;;;3.22;1.30;;;;;;;;;;2656514;52;21565;-75
2022/09/12 10:59:25;;;;;;;2.85;1.48;;;;;;;;;;2398263;56;21101;-75
2022/09/12 11:01:55;;;;;;;1.40;1.15;;;;;;;;;;2398309;56;21493;-75
2022/09/12 11:04:29;;;;;;;1.62;1.40;;;;;;;;;;2398089;56;21026;-75
2022/09/12 11:07:06;;;;;;;2.17;1.23;;;;;;;;;;2397983;56;21576;-75
2022/09/12 11:09:39;;;;;;;1.55;1.25;;;;;;;;;;2657342;52;21017;-75
2022/09/12 11:12:11;;;;;;;1.60;1.23;;;;;;;;;;2398153;56;21496;-75
2022/09/12 11:14:45;;;;;;;2.63;1.57;;;;;;;;;;2419789;52;21094;-75
2022/09/12 11:17:11;;;;;;;;;;;;;;;;;;2401492;56;21017;-75
2022/09/12 11:19:53;;;;;;;2.72;0.90;;;;;;;;;;2398241;56;20045;-75
2022/09/12 11:22:29;;;;;;;0.82;0.77;;;;;;;;;;2398202;56;21028;-75
2022/09/12 11:25:07;;;;;;;2.28;1.20;;;;;;;;;;2398027;56;21025;-75
2022/09/12 11:27:42;;;;;;;2.58;1.05;;;;;;;;;;2398010;56;21026;-75
2022/09/12 11:30:10;;;;;;;1.70;1.20;;;;;;;;;;2398269;56;21105;-75
2022/09/12 11:32:50;;;;;;;5.50;1.33;;;;;;;;;;2398211;56;21070;-75
2022/09/12 11:35:23;;;;;;;0.95;0.88;;;;;;;;;;2398153;56;21030;-76
2022/09/12 11:38:08;;;;;;;1.98;1.23;;;;;;;;;;2398686;56;21018;-75
2022/09/12 11:40:38;;;;;;;1.67;1.20;;;;;;;;;;2398309;56;21010;-75
2022/09/12 11:43:11;;;;;;;2.22;1.17;;;;;;;;;;2398260;56;21563;-75
2022/09/12 11:45:40;;;;;;;1.40;1.30;;;;;;;;;;2397816;56;21038;-75
2022/09/12 11:48:10;;;;;;;1.20;1.10;;;;;;;;;;2398039;56;21036;-75
2022/09/12 11:50:37;;;;;;;2.92;1.45;;;;;;;;;;2398214;56;21022;-75
2022/09/12 11:53:11;;;;;;;1.45;1.27;;;;;;;;;;2398059;56;21018;-75
2022/09/12 11:55:44;;;;;;;2.70;1.87;;;;;;;;;;2398031;56;21106;-76
2022/09/12 11:58:11;;;;;;;2.12;1.52;;;;;;;;;;2398268;56;21018;-76
2022/09/12 12:00:41;;;;;;;3.58;1.45;;;;;;;;;;2398270;56;21089;-75
2022/09/12 12:03:11;;;;;;;2.55;1.45;;;;;;;;;;2397985;56;21516;-75
2022/09/12 12:05:42;;;;;;;2.03;1.50;;;;;;;;;;2656368;52;21042;-75
2022/09/12 12:08:10;;;;;;;4.05;1.70;;;;;;;;;;2398049;56;21034;-75
2022/09/12 12:10:38;;;;;;;4.62;2.10;;;;;;;;;;2398301;56;21026;-75
2022/09/12 12:13:07;;;;;;;3.30;1.60;;;;;;;;;;2656744;51;21025;-75
2022/09/12 12:15:36;;;;;;;2.62;2.00;;;;;;;;;;2397763;56;21025;-75
2022/09/12 12:18:05;;;;;;;2.60;1.70;;;;;;;;;;2550818;52;21531;-75
2022/09/12 12:20:32;;;;;;;1.65;1.55;;;;;;;;;;2398151;56;21089;-75
2022/09/12 12:22:59;;;;;;;2.47;1.67;;;;;;;;;;2398137;56;21017;-75
2022/09/12 12:25:38;;;;;;;2.35;1.90;;;;;;;;;;2396739;56;21097;-75
2022/09/12 12:28:05;;;;;;;2.17;1.60;;;;;;;;;;2382335;56;21151;-76
2022/09/12 12:31:04;;;;;;;2.78;2.25;;;;;;;;;;2382333;56;21030;-75
2022/09/12 12:33:49;;;;;;;2.35;2.00;;;;;;;;;;2382398;56;21030;-75
2022/09/12 12:36:29;;;;;;;3.12;2.05;;;;;;;;;;2382053;56;21038;-76
2022/09/12 12:38:58;;;;;;;2.75;2.25;;;;;;;;;;2382287;56;21034;-75
2022/09/12 12:41:44;;;;;;;1.73;1.62;;;;;;;;;;2382420;56;21018;-75
2022/09/12 12:44:29;;;;;;;2.17;1.50;;;;;;;;;;2382076;56;21078;-76
2022/09/12 12:47:15;;;;;;;2.33;1.92;;;;;;;;;;2382132;56;21129;-76
2022/09/12 12:49:42;;;;;;;2.42;1.77;;;;;;;;;;2382276;56;21588;-76
2022/09/12 12:52:16;;;;;;;2.15;1.48;;;;;;;;;;2637197;52;21066;-75
2022/09/12 12:54:51;;;;;;;2.03;1.23;;;;;;;;;;2382382;56;21421;-76
2022/09/12 12:57:22;;;;;;;2.67;1.30;;;;;;;;;;2381858;56;21034;-75
2022/09/12 12:59:51;;;;;;;3.17;1.40;;;;;;;;;;2382393;56;21488;-76
2022/09/12 13:02:20;;;;;;;2.12;1.40;;;;;;;;;;2382216;56;21100;-76
2022/09/12 13:04:48;;;;;;;3.10;1.27;;;;;;;;;;2382116;56;21528;-76
2022/09/12 13:07:21;;;;;;;2.47;1.50;;;;;;;;;;2382101;56;21102;-75
2022/09/12 13:09:51;;;;;;;1.55;1.00;;;;;;;;;;2382632;56;21039;-76
2022/09/12 13:12:20;;;;;;;2.00;1.80;;;;;;;;;;2382272;56;21022;-76
2022/09/12 13:14:52;;;;;;;1.83;1.17;;;;;;;;;;2382041;56;21038;-76
2022/09/12 13:17:23;;;;;;;1.40;1.30;;;;;;;;;;2382234;56;21521;-76
2022/09/12 13:19:51;;;;;;;2.30;1.35;;;;;;;;;;2637547;52;21323;-76
2022/09/12 13:22:21;;;;;;;1.70;1.12;;;;;;;;;;2382389;56;21022;-76
2022/09/12 13:24:51;;;;;;;1.27;1.00;;;;;;;;;;2442180;53;72181;-84
2022/09/12 13:27:19;;;;;;;1.40;1.25;;;;;;;;;;2519788;54;21066;-84
2022/09/12 13:29:46;;;;;;;4.93;1.50;;;;;;;;;;2286431;59;21123;-84
2022/09/12 13:32:13;;;;;;;1.17;1.08;;;;;;;;;;2520164;54;21094;-84
2022/09/12 13:34:46;;;;;;;1.00;0.90;;;;;;;;;;2535706;54;21175;-84
2022/09/12 13:37:24;;;;;;;1.67;1.20;;;;;;;;;;2552031;54;21029;-84
2022/09/12 13:39:59;;;;;;;1.05;0.93;;;;;;;;;;2552026;54;21104;-85
2022/09/12 13:42:32;;;;;;;1.42;1.20;;;;;;;;;;2312383;58;21117;-84
2022/09/12 13:45:02;;;;;;;1.60;1.05;;;;;;;;;;2312394;57;21092;-85
2022/09/12 13:47:32;;;;;;;2.37;1.10;;;;;;;;;;2312241;58;21064;-84
2022/09/12 13:50:00;;;;;;;1.60;1.27;;;;;;;;;;2551874;54;21033;-84
2022/09/12 13:52:30;;;;;;;1.90;1.40;;;;;;;;;;2312613;58;21045;-84
2022/09/12 13:54:58;;;;;;;1.35;1.25;;;;;;;;;;2551782;53;21108;-84
2022/09/12 13:57:29;;;;;;;1.20;1.10;;;;;;;;;;2312549;58;21084;-84
2022/09/12 13:59:57;;;;;;;3.37;1.45;;;;;;;;;;2312652;58;21044;-84
2022/09/12 14:02:24;;;;;;;1.25;1.10;;;;;;;;;;2312621;58;21089;-84
2022/09/12 14:05:09;;;;;;;1.73;1.48;;;;;;;;;;2312408;58;21041;-85
2022/09/12 14:07:39;;;;;;;1.42;1.10;;;;;;;;;;2551603;54;21148;-84
2022/09/12 14:10:06;;;;;;;1.12;1.02;;;;;;;;;;2551788;54;21542;-85
2022/09/12 14:12:36;;;;;;;2.78;1.05;;;;;;;;;;2312655;58;21037;-84
2022/09/12 14:15:04;;;;;;;1.52;1.10;;;;;;;;;;2551691;53;21585;-84
2022/09/12 14:17:33;;;;;;;2.00;1.48;;;;;;;;;;2551881;54;21047;-84
2022/09/12 14:20:02;;;;;;;1.45;1.08;;;;;;;;;;2551830;54;21513;-84
2022/09/12 14:22:30;;;;;;;1.23;1.12;;;;;;;;;;2551722;54;21521;-84
2022/09/12 14:24:58;;;;;;;3.28;1.10;;;;;;;;;;2551820;53;21596;-84
2022/09/12 14:27:27;;;;;;;1.20;1.10;;;;;;;;;;2312310;58;21024;-84
2022/09/12 14:29:56;;;;;;;2.80;1.30;;;;;;;;;;2551802;54;21108;-84
2022/09/12 14:32:26;;;;;;;1.40;1.30;;;;;;;;;;2551831;54;21036;-85
2022/09/12 14:35:06;;;;;;;1.37;1.27;;;;;;;;;;2312354;58;21528;-85
2022/09/12 14:37:33;;;;;;;2.05;1.00;;;;;;;;;;2551635;54;21045;-84
2022/09/12 14:40:01;;;;;;;1.20;1.10;;;;;;;;;;2312513;58;21029;-84
2022/09/12 14:42:30;;;;;;;1.77;1.17;;;;;;;;;;2552018;53;21616;-85
2022/09/12 14:45:00;;;;;;;1.27;1.17;;;;;;;;;;2312329;58;21486;-84
2022/09/12 14:47:28;;;;;;;2.95;1.25;;;;;;;;;;2551635;54;21574;-84
2022/09/12 14:49:55;;;;;;;2.35;1.62;;;;;;;;;;2551834;53;21049;-84
2022/09/12 14:52:24;;;;;;;1.48;1.27;;;;;;;;;;2551877;54;21113;-84
2022/09/12 14:54:58;;;;;;;1.10;1.00;;;;;;;;;;2551390;53;21036;-84
2022/09/12 14:57:37;;;;;;;2.60;1.50;;;;;;;;;;2312271;58;21041;-84
2022/09/12 15:00:14;;;;;;;1.50;1.40;;;;;;;;;;2311714;58;21112;-84